Time;durP1;ratioP1;P1;durP2;ratioP2;P2;SDS_P1;SDS_P2;PMS_P1;PMS_P2;Temp;Humidity;BMP_temperature;BMP_pressure;BME280_temperature;BME280_humidity;BME280_pressure;Samples;Min_cycle;Max_cycle;Signal;HPM_P1;HPM_P2
2021/06/26 00:08:57;;;;;;;4.53;3.43;;;15.70;99.90;;;;;;20943612;28;20033;-77
2021/06/26 00:18:58;;;;;;;5.90;3.47;;;15.60;99.90;;;;;;20960025;28;20039;-78
2021/06/26 00:28:59;;;;;;;6.20;3.00;;;15.40;99.90;;;;;;20947489;28;20111;-78
2021/06/26 00:39:00;;;;;;;6.17;3.60;;;16.00;99.90;;;;;;20971791;28;20032;-77
2021/06/26 00:49:02;;;;;;;9.43;3.43;;;15.60;99.90;;;;;;20906788;28;20044;-77
2021/06/26 00:59:04;;;;;;;8.23;4.85;;;14.40;99.90;;;;;;20906578;28;20518;-77
2021/06/26 01:09:05;;;;;;;8.05;5.22;;;14.00;99.90;;;;;;20901841;28;20028;-77
2021/06/26 01:19:06;;;;;;;11.52;5.35;;;13.40;99.90;;;;;;20918674;28;20041;-77
2021/06/26 01:29:11;;;;;;;9.87;5.17;;;13.20;99.90;;;;;;20926677;28;20033;-77
2021/06/26 01:39:12;;;;;;;14.07;6.05;;;13.20;99.90;;;;;;20936880;28;20116;-78
2021/06/26 01:49:14;;;;;;;15.37;6.10;;;13.00;99.90;;;;;;20934907;28;20052;-77
2021/06/26 01:59:15;;;;;;;15.80;6.65;;;12.90;99.90;;;;;;20941744;28;20036;-78
2021/06/26 02:09:16;;;;;;;9.93;5.97;;;12.80;99.90;;;;;;20921334;28;20044;-77
2021/06/26 02:19:17;;;;;;;10.30;6.40;;;12.90;99.90;;;;;;20915876;28;20078;-77
2021/06/26 02:29:18;;;;;;;11.33;6.20;;;12.80;99.90;;;;;;20907610;28;20065;-77
2021/06/26 02:39:19;;;;;;;11.73;5.60;;;13.00;99.90;;;;;;20924907;28;20033;-77
2021/06/26 02:49:19;;;;;;;13.50;5.97;;;12.90;99.90;;;;;;20924338;28;20033;-77
2021/06/26 02:59:20;;;;;;;8.83;5.93;;;12.90;99.90;;;;;;20905231;28;20032;-77
2021/06/26 03:09:21;;;;;;;12.40;6.60;;;12.70;99.90;;;;;;20889397;28;20089;-78
2021/06/26 03:19:22;;;;;;;9.87;6.17;;;12.60;99.90;;;;;;20924168;28;20026;-77
2021/06/26 03:29:24;;;;;;;13.80;6.80;;;12.60;99.90;;;;;;20922901;28;20055;-77
2021/06/26 03:39:25;;;;;;;;;;;12.70;99.90;;;;;;20905428;28;20093;-77
2021/06/26 03:49:29;;;;;;;13.30;7.43;;;12.90;99.90;;;;;;20924341;28;20382;-77
2021/06/26 03:59:30;;;;;;;9.93;6.93;;;12.90;99.90;;;;;;20902426;28;20499;-77
2021/06/26 04:09:31;;;;;;;12.70;7.23;;;13.00;99.90;;;;;;20901272;28;20095;-77
2021/06/26 04:19:32;;;;;;;14.03;7.30;;;13.10;99.90;;;;;;20900670;28;20086;-78
2021/06/26 04:29:33;;;;;;;8.73;6.43;;;13.50;99.90;;;;;;20916854;28;20110;-77
2021/06/26 04:39:34;;;;;;;15.47;6.50;;;13.80;99.90;;;;;;20916060;28;20041;-77
2021/06/26 04:49:36;;;;;;;11.43;6.00;;;13.90;99.90;;;;;;20920802;28;20430;-78
2021/06/26 04:59:37;;;;;;;7.90;5.30;;;13.90;99.90;;;;;;20906305;28;20064;-77
2021/06/26 05:09:38;;;;;;;9.20;6.10;;;14.30;99.90;;;;;;20911458;28;20040;-78
2021/06/26 05:19:39;;;;;;;8.40;5.80;;;14.90;99.90;;;;;;20927981;28;20452;-78
2021/06/26 05:29:43;;;;;;;7.90;5.97;;;15.00;99.90;;;;;;20925924;28;20040;-77
2021/06/26 05:39:44;;;;;;;13.93;7.28;;;15.20;99.90;;;;;;20923892;28;20550;-79
2021/06/26 05:49:44;;;;;;;60.97;33.30;;;15.10;99.90;;;;;;20921517;28;20483;-77
2021/06/26 05:59:46;;;;;;;17.50;10.57;;;15.20;99.90;;;;;;20897981;28;20033;-78
2021/06/26 06:09:46;;;;;;;9.43;6.60;;;15.50;99.90;;;;;;20891732;28;20122;-76
2021/06/26 06:19:47;;;;;;;7.77;5.83;;;15.90;99.90;;;;;;20905404;28;20037;-76
2021/06/26 06:29:48;;;;;;;9.93;6.30;;;16.10;99.90;;;;;;20969387;22;20455;-76
2021/06/26 06:39:49;;;;;;;8.47;5.93;;;16.40;99.90;;;;;;20989972;28;20108;-76
2021/06/26 06:49:50;;;;;;;10.13;6.27;;;16.90;99.90;;;;;;20999518;28;20020;-76
2021/06/26 06:59:52;;;;;;;8.73;5.77;;;17.30;99.90;;;;;;20994483;28;20402;-76
2021/06/26 07:09:53;;;;;;;10.82;6.55;;;18.10;99.90;;;;;;21002631;28;20044;-76
2021/06/26 07:19:54;;;;;;;10.77;6.57;;;18.40;99.90;;;;;;21001788;28;20028;-76
2021/06/26 07:29:55;;;;;;;12.07;6.33;;;18.60;99.90;;;;;;21000942;28;20059;-76
2021/06/26 07:39:55;;;;;;;8.67;5.83;;;19.20;99.90;;;;;;21001346;28;20059;-76
2021/06/26 07:49:56;;;;;;;11.13;5.93;;;20.30;99.90;;;;;;21002401;28;20032;-75
2021/06/26 07:59:57;;;;;;;11.27;5.80;;;20.80;99.90;;;;;;21000097;28;20125;-75
2021/06/26 08:09:58;;;;;;;6.60;5.03;;;21.30;99.90;;;;;;20998031;28;20111;-76
2021/06/26 08:19:59;;;;;;;7.60;6.17;;;21.90;99.90;;;;;;20998158;28;20054;-76
2021/06/26 08:30:00;;;;;;;7.37;5.07;;;22.20;99.90;;;;;;20997527;28;20066;-76
2021/06/26 08:40:00;;;;;;;7.53;5.13;;;22.40;99.90;;;;;;20996484;28;20398;-76
2021/06/26 08:50:01;;;;;;;7.23;4.87;;;23.30;99.90;;;;;;20995358;28;20095;-76
2021/06/26 09:00:08;;;;;;;7.43;4.30;;;23.80;99.90;;;;;;20994644;28;20479;-76
2021/06/26 09:10:14;;;;;;;5.68;3.83;;;24.10;99.90;;;;;;20993177;28;20842;-76
2021/06/26 09:20:15;;;;;;;4.13;3.13;;;23.70;99.90;;;;;;20970900;28;20035;-77
2021/06/26 09:30:17;;;;;;;4.53;3.17;;;22.50;99.90;;;;;;20903369;28;20546;-76
2021/06/26 09:40:25;;;;;;;;;;;23.90;99.90;;;;;;20974953;28;20275;-76
2021/06/26 09:50:27;;;;;;;4.82;2.70;;;23.90;99.90;;;;;;20970807;28;19920;-76
2021/06/26 10:00:30;;;;;;;3.65;2.97;;;24.30;99.90;;;;;;20972259;28;20028;-76
2021/06/26 10:10:31;;;;;;;3.90;2.05;;;23.90;99.90;;;;;;20969051;28;20033;-76
2021/06/26 10:20:37;;;;;;;2.55;1.98;;;25.20;99.90;;;;;;20970190;28;20107;-76
2021/06/26 10:30:38;;;;;;;2.00;1.67;;;26.00;99.90;;;;;;20967342;28;20028;-77
2021/06/26 10:40:44;;;;;;;2.65;1.98;;;26.90;99.90;;;;;;20985233;28;20558;-77
2021/06/26 10:50:54;;;;;;;2.90;2.00;;;26.80;99.90;;;;;;20981956;28;20035;-76
2021/06/26 11:00:55;;;;;;;2.65;2.17;;;26.40;99.90;;;;;;20977961;28;20032;-76
2021/06/26 11:10:56;;;;;;;4.05;2.35;;;26.40;99.90;;;;;;20980582;28;20089;-76
2021/06/26 11:20:58;;;;;;;3.40;1.92;;;25.90;99.90;;;;;;20979574;28;20073;-76
2021/06/26 11:31:02;;;;;;;3.70;1.98;;;26.50;99.90;;;;;;20977632;28;20151;-76
2021/06/26 11:41:07;;;;;;;2.47;1.80;;;26.40;99.90;;;;;;20978192;28;20106;-75
2021/06/26 11:51:09;;;;;;;4.20;1.77;;;26.50;99.90;;;;;;20975541;28;20240;-76
2021/06/26 12:01:17;;;;;;;2.13;1.67;;;27.30;99.90;;;;;;20981033;28;20895;-76
2021/06/26 12:11:29;;;;;;;1.77;1.63;;;28.30;99.90;;;;;;20979735;28;20097;-76
2021/06/26 12:21:51;;;;;;;1.73;1.50;;;27.10;99.90;;;;;;20980312;28;20028;-77
2021/06/26 12:31:52;;;;;;;;;;;26.60;99.90;;;;;;21040258;22;20048;-79
2021/06/26 12:42:09;;;;;;;5.80;1.50;;;28.40;99.90;;;;;;21027366;28;19970;-79
2021/06/26 12:52:15;;;;;;;1.95;1.25;;;27.20;99.90;;;;;;20980710;28;20123;-79
2021/06/26 13:02:15;;;;;;;1.60;1.23;;;28.00;99.90;;;;;;20961951;28;20044;-79
2021/06/26 13:12:20;;;;;;;5.97;1.63;;;28.30;99.90;;;;;;20984463;28;20036;-80
2021/06/26 13:22:22;;;;;;;6.60;1.60;;;27.60;99.90;;;;;;20978032;28;20066;-79
2021/06/26 13:32:23;;;;;;;4.65;1.52;;;27.50;99.90;;;;;;20976532;28;20127;-79
2021/06/26 13:42:23;;;;;;;1.33;1.23;;;28.00;99.90;;;;;;20974784;28;20556;-79
2021/06/26 13:52:24;;;;;;;3.28;1.20;;;28.50;99.90;;;;;;20957472;28;20608;-79
2021/06/26 14:02:26;;;;;;;1.73;1.42;;;28.10;99.90;;;;;;20977151;28;20082;-80
2021/06/26 14:12:27;;;;;;;2.03;1.35;;;27.90;99.90;;;;;;21038462;28;20055;-78
2021/06/26 14:22:28;;;;;;;1.52;1.27;;;28.40;99.90;;;;;;21021126;28;20037;-78
2021/06/26 14:32:29;;;;;;;1.55;1.15;;;28.50;99.90;;;;;;21022552;28;20040;-79
2021/06/26 14:42:30;;;;;;;2.63;1.60;;;29.10;99.90;;;;;;21035242;28;20043;-78
2021/06/26 14:52:31;;;;;;;2.85;1.48;;;29.00;99.90;;;;;;21021843;28;20769;-79
2021/06/26 15:02:32;;;;;;;2.33;1.33;;;28.10;99.90;;;;;;21004899;28;20071;-79
2021/06/26 15:12:33;;;;;;;1.98;1.20;;;28.90;99.90;;;;;;21019241;28;20031;-81
2021/06/26 15:22:34;;;;;;;2.40;1.48;;;28.90;99.90;;;;;;20996641;28;20786;-80
2021/06/26 15:32:35;;;;;;;1.48;1.27;;;28.80;99.90;;;;;;21021236;28;20032;-80
2021/06/26 15:42:36;;;;;;;1.30;1.20;;;28.20;99.90;;;;;;21020377;28;20605;-80
2021/06/26 15:52:39;;;;;;;1.80;1.25;;;27.90;99.90;;;;;;21022202;28;20096;-80
2021/06/26 16:02:40;;;;;;;2.03;1.30;;;27.70;99.90;;;;;;21041749;28;20429;-80
2021/06/26 16:12:42;;;;;;;2.20;1.52;;;27.10;99.90;;;;;;21027210;28;20032;-80
2021/06/26 16:22:42;;;;;;;1.50;1.38;;;27.30;99.90;;;;;;21018203;28;20138;-81
2021/06/26 16:32:44;;;;;;;2.10;1.80;;;26.40;99.90;;;;;;20993121;28;20035;-81
2021/06/26 16:42:47;;;;;;;3.10;1.65;;;26.50;99.90;;;;;;20983763;28;20035;-80
2021/06/26 16:52:47;;;;;;;1.63;1.25;;;26.60;99.90;;;;;;21004571;28;20394;-81
2021/06/26 17:02:48;;;;;;;3.63;1.52;;;26.50;99.90;;;;;;20983525;28;20036;-80
2021/06/26 17:12:49;;;;;;;;;;;26.10;99.90;;;;;;20974015;28;20418;-80
2021/06/26 17:22:50;;;;;;;3.20;1.73;;;26.10;99.90;;;;;;20987782;28;19991;-79
2021/06/26 17:32:51;;;;;;;;;;;26.40;99.90;;;;;;20986188;28;20109;-79
2021/06/26 17:42:52;;;;;;;2.67;1.58;;;26.50;99.90;;;;;;20982363;28;19952;-80
2021/06/26 17:52:54;;;;;;;5.00;1.95;;;26.00;99.90;;;;;;20983631;28;20399;-81
2021/06/26 18:02:55;;;;;;;2.25;1.60;;;25.10;99.90;;;;;;20989366;28;20116;-80
2021/06/26 18:12:58;;;;;;;2.28;1.58;;;27.10;99.90;;;;;;20985970;28;20120;-79
2021/06/26 18:22:59;;;;;;;3.70;1.55;;;27.60;99.90;;;;;;20984400;28;20052;-79
2021/06/26 18:33:00;;;;;;;2.92;1.38;;;27.20;99.90;;;;;;20997992;22;20052;-75
2021/06/26 18:43:01;;;;;;;1.40;1.30;;;27.60;99.90;;;;;;20970669;28;20028;-75
2021/06/26 18:53:02;;;;;;;2.97;2.35;;;24.70;99.90;;;;;;20971097;28;20241;-77
2021/06/26 19:03:03;;;;;;;;;;;22.90;99.90;;;;;;20985509;28;20032;-77
2021/06/26 19:13:04;;;;;;;3.72;2.13;;;22.20;99.90;;;;;;20992533;28;19922;-75
2021/06/26 19:23:05;;;;;;;9.30;2.67;;;21.90;99.90;;;;;;21045865;28;20078;-75
2021/06/26 19:33:06;;;;;;;3.87;2.53;;;21.50;99.90;;;;;;20997859;28;20039;-77
2021/06/26 19:43:08;;;;;;;4.27;2.80;;;20.70;99.90;;;;;;21001919;28;20037;-76
2021/06/26 19:53:09;;;;;;;3.97;2.92;;;20.30;99.90;;;;;;21000346;28;20024;-76
2021/06/26 20:03:10;;;;;;;6.27;3.20;;;20.00;99.90;;;;;;20997993;28;20037;-75
2021/06/26 20:13:13;;;;;;;4.70;2.90;;;20.00;99.90;;;;;;20997644;28;20055;-75
2021/06/26 20:23:14;;;;;;;9.23;3.90;;;19.90;99.90;;;;;;20996850;28;20074;-77
2021/06/26 20:33:16;;;;;;;9.70;4.20;;;19.90;99.90;;;;;;20997933;28;20456;-77
2021/06/26 20:43:17;;;;;;;5.72;3.92;;;20.00;99.90;;;;;;21000099;28;20039;-78
2021/06/26 20:53:18;;;;;;;8.03;3.80;;;19.70;99.90;;;;;;21003883;28;20562;-77
2021/06/26 21:03:19;;;;;;;5.67;3.30;;;19.50;99.90;;;;;;20995026;28;20036;-77
2021/06/26 21:13:19;;;;;;;5.00;3.73;;;18.30;99.90;;;;;;20994476;28;20036;-77
2021/06/26 21:23:20;;;;;;;7.60;3.97;;;18.90;99.90;;;;;;20993575;28;20069;-78
2021/06/26 21:33:21;;;;;;;6.47;4.20;;;18.80;99.90;;;;;;20992624;28;20024;-77
2021/06/26 21:43:22;;;;;;;5.47;3.90;;;18.30;99.90;;;;;;20991912;28;20028;-77
2021/06/26 21:53:24;;;;;;;5.57;4.07;;;18.10;99.90;;;;;;20993177;28;20070;-77
2021/06/26 22:03:25;;;;;;;;;;;18.00;99.90;;;;;;20991538;28;20033;-77
2021/06/26 22:13:26;;;;;;;5.87;4.03;;;18.10;99.90;;;;;;20989168;28;19934;-77
2021/06/26 22:23:27;;;;;;;6.50;3.83;;;17.80;99.90;;;;;;20990111;28;20776;-77
2021/06/26 22:33:27;;;;;;;10.07;4.00;;;17.80;99.90;;;;;;20994992;28;20063;-76
2021/06/26 22:43:29;;;;;;;5.17;3.47;;;18.20;99.90;;;;;;20982919;28;20033;-75
2021/06/26 22:53:33;;;;;;;6.63;4.00;;;18.00;99.90;;;;;;20981012;28;20032;-77
2021/06/26 23:03:34;;;;;;;7.80;3.42;;;18.00;99.90;;;;;;20982285;28;20275;-77
2021/06/26 23:13:35;;;;;;;10.07;4.43;;;18.20;99.90;;;;;;20982959;28;20036;-77
2021/06/26 23:23:36;;;;;;;5.87;3.97;;;18.00;99.90;;;;;;20981910;28;20025;-78
2021/06/26 23:33:37;;;;;;;7.97;3.47;;;17.90;99.90;;;;;;20989214;28;20036;-77
2021/06/26 23:43:38;;;;;;;7.47;3.80;;;18.00;99.90;;;;;;20995747;28;20024;-77
2021/06/26 23:53:39;;;;;;;6.03;4.33;;;17.90;99.90;;;;;;20998618;28;20194;-77
